Time;durP1;ratioP1;P1;durP2;ratioP2;P2;SDS_P1;SDS_P2;PMS_P1;PMS_P2;Temp;Humidity;BMP_temperature;BMP_pressure;BME280_temperature;BME280_humidity;BME280_pressure;Samples;Min_cycle;Max_cycle;Signal;HPM_P1;HPM_P2
2024/03/04 00:00:05;;;;;;;;;5.50;4.75;;;;;-143.90;100.00;74841.44;4965692;28;103974;-71
2024/03/04 00:02:32;;;;;;;;;5.50;4.75;;;;;-143.90;100.00;74843.53;4955177;27;102560;-72
2024/03/04 00:04:59;;;;;;;;;8.75;8.25;;;;;-143.90;100.00;74849.72;4967783;28;101889;-72
2024/03/04 00:07:25;;;;;;;;;6.75;4.00;;;;;-143.90;100.00;74862.13;4983761;28;102652;-72
2024/03/04 00:09:52;;;;;;;;;20.00;17.50;;;;;-143.90;100.00;74876.59;4966194;28;104176;-72
2024/03/04 00:12:20;;;;;;;;;34.50;26.75;;;;;-143.90;100.00;74886.94;4959866;28;102145;-72
2024/03/04 00:14:47;;;;;;;;;38.50;33.00;;;;;-143.90;100.00;74903.47;4965854;28;102639;-72
2024/03/04 00:17:13;;;;;;;;;38.25;28.00;;;;;-143.90;100.00;74913.81;4969516;28;102261;-72
2024/03/04 00:19:40;;;;;;;;;34.00;30.00;;;;;-143.90;100.00;74936.53;4960175;28;104217;-71
2024/03/04 00:22:07;;;;;;;;;41.00;35.50;;;;;-143.90;100.00;74938.59;4961592;28;102401;-72
2024/03/04 00:24:33;;;;;;;;;43.50;37.25;;;;;-143.90;100.00;74961.34;4957208;28;103921;-71
2024/03/04 00:27:00;;;;;;;;;33.00;29.75;;;;;-143.90;100.00;74965.50;4966060;28;102096;-71
2024/03/04 00:29:30;;;;;;;;;40.75;37.50;;;;;-143.90;100.00;74982.03;4966993;28;104199;-72
2024/03/04 00:31:57;;;;;;;;;49.25;36.00;;;;;-143.90;100.00;74992.38;4964469;28;102522;-72
2024/03/04 00:34:23;;;;;;;;;46.75;38.75;;;;;-143.90;100.00;75021.31;4956296;28;102572;-72
2024/03/04 00:36:51;;;;;;;;;38.50;30.75;;;;;-143.90;100.00;75029.56;4968549;28;102002;-71
2024/03/04 00:39:18;;;;;;;;;36.75;29.50;;;;;-143.90;100.00;75035.78;4966340;28;104236;-72
2024/03/04 00:41:46;;;;;;;;;33.50;26.75;;;;;-143.90;100.00;75044.03;4962612;28;101910;-72
2024/03/04 00:44:14;;;;;;;;;28.00;25.00;;;;;-143.90;100.00;75046.09;4963430;28;104222;-73
2024/03/04 00:46:44;;;;;;;;;36.25;31.50;;;;;-143.90;100.00;75039.91;4960545;28;102034;-72
2024/03/04 00:49:10;;;;;;;;;52.50;41.00;;;;;-143.90;100.00;75023.38;4963336;28;104128;-72
2024/03/04 00:51:37;;;;;;;;;47.00;39.50;;;;;-143.90;100.00;75017.16;4965544;27;102415;-72
2024/03/04 00:54:05;;;;;;;;;57.00;43.00;;;;;-143.90;100.00;74998.56;4964441;28;102383;-72
2024/03/04 00:56:32;;;;;;;;;55.75;42.75;;;;;-143.90;100.00;74990.28;4955975;28;102589;-72
2024/03/04 00:58:58;;;;;;;;;56.75;45.50;;;;;-143.90;100.00;74988.22;4964179;28;104178;-72
2024/03/04 01:01:25;;;;;;;;;48.50;39.50;;;;;-143.90;100.00;74979.97;4964029;28;102176;-72
2024/03/04 01:03:52;;;;;;;;;50.00;39.25;;;;;-143.90;100.00;74963.41;4964785;27;102532;-72
2024/03/04 01:06:19;;;;;;;;;54.00;39.25;;;;;-143.90;100.00;74961.34;4962037;27;104064;-73
2024/03/04 01:08:45;;;;;;;;;55.50;42.25;;;;;-143.90;100.00;74963.41;4965340;28;104088;-72
2024/03/04 01:11:12;;;;;;;;;53.25;42.50;;;;;-143.90;100.00;74977.88;4964807;28;102466;-71
2024/03/04 01:13:39;;;;;;;;;52.50;42.00;;;;;-143.90;100.00;74971.69;4966320;28;102274;-72
2024/03/04 01:16:05;;;;;;;;;44.75;37.25;;;;;-143.90;100.00;74973.75;4966169;28;101987;-72
2024/03/04 01:18:32;;;;;;;;;54.25;40.75;;;;;-143.90;100.00;74969.63;4954631;28;105506;-71
2024/03/04 01:20:59;;;;;;;;;46.50;39.25;;;;;-143.90;100.00;74967.56;4966697;27;102845;-71
2024/03/04 01:23:26;;;;;;;;;34.00;32.00;;;;;-143.90;100.00;74963.41;4964040;28;102134;-71
2024/03/04 01:25:54;;;;;;;;;38.25;32.25;;;;;-143.90;100.00;74965.50;4958354;28;101952;-71
2024/03/04 01:28:24;;;;;;;;;48.50;40.00;;;;;-143.90;100.00;74969.63;4952421;28;103948;-72
2024/03/04 01:30:53;;;;;;;;;30.50;29.75;;;;;-143.90;100.00;74977.88;4962619;28;101945;-71
2024/03/04 01:33:19;;;;;;;;;43.50;36.00;;;;;-143.90;100.00;74986.16;4960564;27;102388;-72
2024/03/04 01:35:47;;;;;;;;;31.50;29.25;;;;;-143.90;100.00;74986.16;4967943;28;101991;-72
2024/03/04 01:38:14;;;;;;;;;42.75;36.00;;;;;-143.90;100.00;74986.16;4960026;28;108826;-72
2024/03/04 01:40:42;;;;;;;;;33.00;30.25;;;;;-143.90;100.00;74988.22;4960278;27;102319;-72
2024/03/04 01:43:09;;;;;;;;;47.25;36.75;;;;;-143.90;100.00;74988.22;4963165;28;101955;-72
2024/03/04 01:45:36;;;;;;;;;41.75;36.00;;;;;-143.90;100.00;74990.28;4964352;28;102473;-72
2024/03/04 01:48:04;;;;;;;;;44.25;36.75;;;;;-143.90;100.00;74982.03;4959234;28;104852;-72
2024/03/04 01:50:36;;;;;;;;;43.50;36.25;;;;;-143.90;100.00;74990.28;4952453;27;104474;-71
2024/03/04 01:53:04;;;;;;;;;36.25;30.75;;;;;-143.90;100.00;74986.16;4960706;28;104466;-72
2024/03/04 01:55:39;;;;;;;;;30.50;26.00;;;;;-143.90;100.00;74994.44;4964620;27;102042;-71
2024/03/04 01:58:11;;;;;;;;;19.75;19.00;;;;;-143.90;100.00;75002.69;4961770;28;104583;-73
2024/03/04 02:00:45;;;;;;;;;20.00;18.00;;;;;-143.90;100.00;75019.22;4954040;28;102134;-73
2024/03/04 02:03:15;;;;;;;;;19.75;16.75;;;;;-143.90;100.00;75029.56;4959477;28;101822;-72
2024/03/04 02:05:46;;;;;;;;;17.25;15.25;;;;;-143.90;100.00;75031.63;4961496;27;102246;-71
2024/03/04 02:08:13;;;;;;;;;40.00;36.00;;;;;-143.90;100.00;75035.78;4963766;28;104148;-72
2024/03/04 02:10:40;;;;;;;;;31.50;27.00;;;;;-143.90;100.00;75037.84;4954072;28;101993;-71
2024/03/04 02:13:07;;;;;;;;;27.00;24.75;;;;;-143.90;100.00;75039.91;4963456;28;102393;-71
2024/03/04 02:15:37;;;;;;;;;25.00;20.00;;;;;-143.90;100.00;75064.72;4964965;28;102510;-71
2024/03/04 02:18:05;;;;;;;;;19.75;18.25;;;;;-143.90;100.00;75081.25;4963851;27;104292;-72
2024/03/04 02:20:39;;;;;;;;;18.25;15.25;;;;;-143.90;100.00;75085.38;4944290;28;104896;-71
2024/03/04 02:23:08;;;;;;;;;16.50;14.75;;;;;-143.90;100.00;75106.06;4959951;27;102245;-72
2024/03/04 02:25:36;;;;;;;;;18.25;17.75;;;;;-143.90;100.00;75101.94;4957022;27;102416;-71
2024/03/04 02:28:03;;;;;;;;;40.00;33.75;;;;;-143.90;100.00;75106.06;4962390;28;103305;-73
2024/03/04 02:30:32;;;;;;;;;34.00;25.50;;;;;-143.90;100.00;75106.06;4949685;27;105107;-72
2024/03/04 02:33:02;;;;;;;;;19.50;19.50;;;;;-143.90;100.00;75114.34;4951485;28;102530;-72
2024/03/04 02:35:33;;;;;;;;;22.25;17.50;;;;;-143.90;100.00;75120.53;4963380;28;101995;-72
2024/03/04 02:38:04;;;;;;;;;39.50;33.75;;;;;-143.90;100.00;75101.94;4961336;27;104355;-71
2024/03/04 02:40:31;;;;;;;;;55.75;40.75;;;;;-143.90;100.00;75081.25;4950972;28;102552;-72
2024/03/04 02:42:58;;;;;;;;;52.00;40.25;;;;;-143.90;100.00;75075.06;4963706;28;102545;-72
2024/03/04 02:45:25;;;;;;;;;49.50;38.75;;;;;-143.90;100.00;75064.72;4960557;28;104164;-73
2024/03/04 02:47:51;;;;;;;;;56.00;43.50;;;;;-143.90;100.00;75062.66;4960369;28;104158;-73
2024/03/04 02:50:18;;;;;;;;;60.75;44.00;;;;;-143.90;100.00;75054.38;4946333;27;102648;-72
2024/03/04 02:52:45;;;;;;;;;51.25;41.50;;;;;-143.90;100.00;75052.31;4957870;28;102852;-72
2024/03/04 02:55:12;;;;;;;;;55.25;43.25;;;;;-143.90;100.00;75050.25;4962092;28;101989;-72
2024/03/04 02:57:39;;;;;;;;;53.00;39.00;;;;;-143.90;100.00;75052.31;4959677;28;104356;-71
2024/03/04 03:00:06;;;;;;;;;47.00;36.00;;;;;-143.90;100.00;75052.31;4959629;28;102347;-72
2024/03/04 03:02:33;;;;;;;;;46.50;37.75;;;;;-143.90;100.00;75052.31;4940379;28;102417;-71
2024/03/04 03:05:00;;;;;;;;;37.75;32.25;;;;;-143.90;100.00;75052.31;4962088;28;102014;-72
2024/03/04 03:07:27;;;;;;;;;35.50;32.00;;;;;-143.90;100.00;75058.50;4963959;28;104229;-71
2024/03/04 03:09:54;;;;;;;;;49.00;36.50;;;;;-143.90;100.00;75054.38;4963111;28;102504;-72
2024/03/04 03:12:20;;;;;;;;;51.25;40.50;;;;;-143.90;100.00;75052.31;4943998;28;102317;-72
2024/03/04 03:14:48;;;;;;;;;45.00;37.75;;;;;-143.90;100.00;75052.31;4967635;28;102043;-72
2024/03/04 03:17:14;;;;;;;;;54.75;41.75;;;;;-143.90;100.00;75056.44;4960576;28;104274;-72
2024/03/04 03:19:41;;;;;;;;;50.50;40.00;;;;;-143.90;100.00;75050.25;4963401;28;102113;-71
2024/03/04 03:22:08;;;;;;;;;52.25;40.00;;;;;-143.90;100.00;75046.09;4963425;28;102477;-72
2024/03/04 03:24:35;;;;;;;;;48.50;40.50;;;;;-143.90;100.00;75033.72;4949554;28;102547;-72
2024/03/04 03:27:02;;;;;;;;;55.75;41.50;;;;;-143.90;100.00;75019.22;4959797;28;104123;-72
2024/03/04 03:29:29;;;;;;;;;54.00;41.25;;;;;-143.90;100.00;75017.16;4960131;28;102648;-72
2024/03/04 03:31:55;;;;;;;;;54.25;40.75;;;;;-143.90;100.00;75010.97;4964848;28;104465;-72
2024/03/04 03:34:22;;;;;;;;;53.50;41.50;;;;;-143.90;100.00;75006.84;4953772;28;102320;-71
2024/03/04 03:36:49;;;;;;;;;53.25;40.25;;;;;-143.90;100.00;74998.56;4966052;28;104089;-71
2024/03/04 03:39:15;;;;;;;;;42.00;34.50;;;;;-143.90;100.00;74992.38;4963642;28;102125;-72
2024/03/04 03:41:42;;;;;;;;;51.75;40.25;;;;;-143.90;100.00;74990.28;4963707;28;102171;-72
2024/03/04 03:44:08;;;;;;;;;53.25;42.75;;;;;-143.90;100.00;74988.22;4961467;28;102371;-72
2024/03/04 03:46:35;;;;;;;;;53.00;40.75;;;;;-143.90;100.00;74971.69;4950416;28;104057;-73
2024/03/04 03:49:02;;;;;;;;;40.00;36.00;;;;;-143.90;100.00;74961.34;4963508;28;102092;-72
2024/03/04 03:51:29;;;;;;;;;35.50;29.25;;;;;-143.90;100.00;74969.63;4961044;28;102549;-73
2024/03/04 03:53:55;;;;;;;;;25.75;23.75;;;;;-143.90;100.00;74965.50;4961522;28;103222;-72
2024/03/04 03:56:22;;;;;;;;;39.50;31.50;;;;;-143.90;100.00;74973.75;4951393;28;104172;-73
2024/03/04 03:58:52;;;;;;;;;28.25;24.50;;;;;-143.90;100.00;74975.81;4959304;28;102634;-73
2024/03/04 04:01:18;;;;;;;;;18.25;15.50;;;;;-143.90;100.00;74973.75;4960864;28;102815;-73
2024/03/04 04:03:45;;;;;;;;;21.75;19.50;;;;;-143.90;100.00;74973.75;4963118;28;102401;-73
2024/03/04 04:06:12;;;;;;;;;29.50;22.50;;;;;-143.90;100.00;74977.88;4962769;27;104028;-72
2024/03/04 04:08:42;;;;;;;;;21.00;18.75;;;;;-143.90;100.00;74977.88;4952709;28;102521;-73
2024/03/04 04:11:09;;;;;;;;;29.75;26.25;;;;;-143.90;100.00;74973.75;4960340;28;102376;-72
2024/03/04 04:13:35;;;;;;;;;20.00;18.00;;;;;-143.90;100.00;74973.75;4958885;28;102041;-72
2024/03/04 04:16:03;;;;;;;;;23.75;21.75;;;;;-143.90;100.00;74967.56;4959960;28;103946;-72
2024/03/04 04:18:30;;;;;;;;;25.00;18.75;;;;;-143.90;100.00;74961.34;4952751;28;105174;-72
2024/03/04 04:20:57;;;;;;;;;20.00;15.50;;;;;-143.90;100.00;74965.50;4964900;28;102208;-71
2024/03/04 04:23:23;;;;;;;;;18.00;13.75;;;;;-143.90;100.00;74959.28;4961116;28;102146;-72
2024/03/04 04:25:50;;;;;;;;;18.75;15.50;;;;;-143.90;100.00;74967.56;4965267;28;104143;-71
2024/03/04 04:28:17;;;;;;;;;14.75;12.00;;;;;-143.90;100.00;74965.50;4959598;28;102297;-72
2024/03/04 04:30:45;;;;;;;;;38.00;29.75;;;;;-143.90;100.00;74967.56;4962796;28;102095;-72
2024/03/04 04:33:12;;;;;;;;;42.00;35.75;;;;;-143.90;100.00;74973.75;4966722;28;102402;-71
2024/03/04 04:35:39;;;;;;;;;51.25;40.00;;;;;-143.90;100.00;74973.75;4966087;28;104253;-72
2024/03/04 04:38:05;;;;;;;;;51.00;40.75;;;;;-143.90;100.00;74973.75;4963913;28;103361;-71
2024/03/04 04:40:32;;;;;;;;;48.00;38.25;;;;;-143.90;100.00;74977.88;4954137;28;102301;-72
2024/03/04 04:42:59;;;;;;;;;52.50;41.25;;;;;-143.90;100.00;74984.09;4965815;28;102666;-72
2024/03/04 04:45:26;;;;;;;;;44.25;37.00;;;;;-143.90;100.00;74982.03;4967838;27;105769;-72
2024/03/04 04:47:53;;;;;;;;;50.50;39.00;;;;;-143.90;100.00;74982.03;4965495;28;101976;-72
2024/03/04 04:50:21;;;;;;;;;41.00;37.00;;;;;-143.90;100.00;74988.22;4959383;28;102007;-72
2024/03/04 04:52:48;;;;;;;;;47.50;39.25;;;;;-143.90;100.00;74986.16;4966548;28;102249;-72
2024/03/04 04:55:15;;;;;;;;;56.00;40.00;;;;;-143.90;100.00;74986.16;4962872;27;104007;-72
2024/03/04 04:57:44;;;;;;;;;35.50;28.75;;;;;-143.90;100.00;74979.97;4962938;28;102463;-73
2024/03/04 05:00:12;;;;;;;;;29.75;26.00;;;;;-143.90;100.00;74973.75;4963893;27;102285;-71
2024/03/04 05:02:40;;;;;;;;;36.75;30.75;;;;;-143.90;100.00;74984.09;4956316;28;102517;-71
2024/03/04 05:05:08;;;;;;;;;25.50;19.00;;;;;-143.90;100.00;74982.03;4963843;28;104121;-72
2024/03/04 05:07:35;;;;;;;;;29.75;28.50;;;;;-143.90;100.00;74990.28;4963182;28;102369;-72
2024/03/04 05:10:03;;;;;;;;;21.50;16.00;;;;;-143.90;100.00;74992.38;4961305;28;102072;-72
2024/03/04 05:12:30;;;;;;;;;24.00;21.75;;;;;-143.90;100.00;75010.97;4954575;28;102279;-72
2024/03/04 05:14:57;;;;;;;;;34.25;30.00;;;;;-143.90;100.00;75013.03;4957291;28;104127;-71
2024/03/04 05:17:24;;;;;;;;;29.00;25.75;;;;;-143.90;100.00;75015.09;4962038;28;102445;-72
2024/03/04 05:19:51;;;;;;;;;34.25;29.75;;;;;-143.90;100.00;75025.44;4960748;28;102350;-72
2024/03/04 05:22:18;;;;;;;;;39.75;37.25;;;;;-143.90;100.00;75025.44;4958464;28;102378;-72
2024/03/04 05:24:44;;;;;;;;;32.25;29.50;;;;;-143.90;100.00;75031.63;4960192;27;103956;-72
2024/03/04 05:27:12;;;;;;;;;28.50;23.75;;;;;-143.90;100.00;75033.72;4958214;28;105730;-72
2024/03/04 05:29:38;;;;;;;;;43.25;31.00;;;;;-143.90;100.00;75044.03;4962939;27;102427;-71
2024/03/04 05:32:06;;;;;;;;;31.50;28.25;;;;;-143.90;100.00;75044.03;4957392;28;101991;-71
2024/03/04 05:34:32;;;;;;;;;28.25;22.00;;;;;-143.90;100.00;75054.38;4952667;28;104071;-71
2024/03/04 05:36:59;;;;;;;;;18.50;17.50;;;;;-143.90;100.00;75060.59;4959251;28;102093;-72
2024/03/04 05:39:31;;;;;;;;;20.00;17.75;;;;;-143.90;100.00;75066.78;4961946;28;102316;-72
2024/03/04 05:41:58;;;;;;;;;14.75;11.75;;;;;-143.90;100.00;75066.78;4956052;28;102091;-72
2024/03/04 05:44:25;;;;;;;;;23.25;18.00;;;;;-143.90;100.00;75072.97;4949554;28;105067;-72
2024/03/04 05:46:52;;;;;;;;;22.50;18.75;;;;;-143.90;100.00;75077.13;4961662;28;102241;-71
2024/03/04 05:49:19;;;;;;;;;16.25;14.50;;;;;-143.90;100.00;75075.06;4961542;28;102435;-72
2024/03/04 05:51:45;;;;;;;;;24.00;19.75;;;;;-143.90;100.00;75093.66;4962872;28;101942;-71
2024/03/04 05:54:12;;;;;;;;;25.50;25.25;;;;;-143.90;100.00;75095.72;4962734;28;104716;-72
2024/03/04 05:56:45;;;;;;;;;20.25;18.50;;;;;-143.90;100.00;75095.72;4941609;28;102383;-72
2024/03/04 05:59:12;;;;;;;;;21.50;17.75;;;;;-143.90;100.00;75093.66;4960009;28;101981;-72
2024/03/04 06:01:39;;;;;;;;;28.00;23.50;;;;;-143.90;100.00;75093.66;4959023;28;102220;-72
2024/03/04 06:04:06;;;;;;;;;17.00;16.00;;;;;-143.90;100.00;75091.59;4956335;28;105611;-73
2024/03/04 06:06:33;;;;;;;;;19.25;14.75;;;;;-143.90;100.00;75093.66;4953344;28;102040;-72
2024/03/04 06:09:03;;;;;;;;;16.50;13.00;;;;;-143.90;100.00;75087.47;4966109;28;102007;-72
2024/03/04 06:11:30;;;;;;;;;21.75;17.25;;;;;-143.90;100.00;75089.53;4958107;28;101812;-72
2024/03/04 06:13:57;;;;;;;;;19.75;18.00;;;;;-143.90;100.00;75089.53;4964638;28;104065;-72
2024/03/04 06:16:24;;;;;;;;;18.50;17.50;;;;;-143.90;100.00;75095.72;4953538;28;102754;-72
2024/03/04 06:18:51;;;;;;;;;19.00;17.25;;;;;-143.90;100.00;75087.47;4962609;28;102259;-72
2024/03/04 06:21:18;;;;;;;;;21.75;20.00;;;;;-143.90;100.00;75072.97;4966486;28;102456;-72
2024/03/04 06:23:44;;;;;;;;;29.00;26.00;;;;;-143.90;100.00;75068.84;4963503;28;104187;-72
2024/03/04 06:26:11;;;;;;;;;21.00;19.75;;;;;-143.90;100.00;75060.59;4963972;28;103789;-72
2024/03/04 06:28:38;;;;;;;;;20.50;17.75;;;;;-143.90;100.00;75052.31;4951725;28;101986;-72
2024/03/04 06:31:05;;;;;;;;;30.75;25.75;;;;;-143.90;100.00;75031.63;4964834;28;103086;-71
2024/03/04 06:33:32;;;;;;;;;29.25;25.50;;;;;-143.90;100.00;75010.97;4961142;28;104007;-71
2024/03/04 06:36:18;;;;;;;;;35.75;29.75;;;;;-143.90;100.00;74990.28;4957113;28;102146;-72
2024/03/04 06:38:45;;;;;;;;;43.00;37.00;;;;;-143.90;100.00;74965.50;4958928;28;102342;-72
2024/03/04 06:41:12;;;;;;;;;49.00;41.50;;;;;-143.90;100.00;74944.81;4966253;28;107969;-72
2024/03/04 06:43:39;;;;;;;;;49.75;39.25;;;;;-143.90;100.00;74922.06;4965333;28;103960;-72
2024/03/04 06:46:07;;;;;;;;;28.50;24.75;;;;;-143.90;100.00;74903.47;4963445;28;103033;-72
2024/03/04 06:48:34;;;;;;;;;54.75;40.00;;;;;-143.90;100.00;74895.19;4948154;28;102574;-72
2024/03/04 06:51:00;;;;;;;;;40.50;34.00;;;;;-143.90;100.00;74874.53;4965503;28;103854;-71
2024/03/04 06:53:27;;;;;;;;;36.50;32.25;;;;;-143.90;100.00;74866.25;4963290;27;104340;-71
2024/03/04 06:55:54;;;;;;;;;45.00;36.50;;;;;-143.90;100.00;74841.44;4963970;28;103477;-73
2024/03/04 06:58:23;;;;;;;;;56.00;43.50;;;;;-143.90;100.00;74822.84;4957981;27;102293;-72
2024/03/04 07:00:51;;;;;;;;;34.25;32.75;;;;;-143.90;100.00;74781.50;4963689;28;102519;-72
2024/03/04 07:03:18;;;;;;;;;49.75;41.75;;;;;-143.90;100.00;74760.81;4960420;28;108776;-71
2024/03/04 07:05:45;;;;;;;;;33.25;27.00;;;;;-143.90;100.00;74736.03;4959035;28;102786;-72
2024/03/04 07:08:12;;;;;;;;;33.75;29.00;;;;;-143.90;100.00;74721.56;4959210;28;102342;-71
2024/03/04 07:10:38;;;;;;;;;32.75;26.75;;;;;-143.90;100.00;74702.94;4950452;28;102533;-71
2024/03/04 07:13:05;;;;;;;;;27.25;22.00;;;;;-143.90;100.00;74688.47;4965325;28;103986;-72
2024/03/04 07:15:32;;;;;;;;;26.75;23.75;;;;;-143.90;100.00;74676.06;4963714;28;102140;-72
2024/03/04 07:17:59;;;;;;;;;34.50;29.00;;;;;-143.90;100.00;74653.34;4960046;28;102262;-72
2024/03/04 07:20:26;;;;;;;;;26.00;22.00;;;;;-143.90;100.00;74622.34;4953952;28;102220;-72
2024/03/04 07:22:53;;;;;;;;;24.25;19.00;;;;;-143.90;100.00;74599.59;4963259;28;104134;-71
2024/03/04 07:25:19;;;;;;;;;15.25;14.00;;;;;-143.90;100.00;74574.78;4964922;28;102418;-71
2024/03/04 07:27:46;;;;;;;;;16.00;15.75;;;;;-143.90;100.00;74556.19;4962830;28;102298;-71
2024/03/04 07:30:13;;;;;;;;;18.50;17.25;;;;;-143.90;100.00;74535.50;4963579;27;102466;-71
2024/03/04 07:32:40;;;;;;;;;17.25;15.75;;;;;-143.90;100.00;74531.38;4952998;28;104068;-71
2024/03/04 07:35:08;;;;;;;;;21.25;18.25;;;;;-143.90;100.00;74514.84;4964358;28;101975;-72
2024/03/04 07:37:34;;;;;;;;;25.25;21.00;;;;;-143.90;100.00;74508.63;4962283;28;102142;-72
2024/03/04 07:40:01;;;;;;;;;16.25;15.25;;;;;-143.90;100.00;74487.97;4963871;28;101912;-72
2024/03/04 07:42:28;;;;;;;;;31.00;25.25;;;;;-143.90;100.00;74494.16;4949265;28;104073;-72
2024/03/04 07:44:55;;;;;;;;;37.50;32.50;;;;;-143.90;100.00;74494.16;4963109;28;102239;-71
2024/03/04 07:47:22;;;;;;;;;32.50;29.50;;;;;-143.90;100.00;74477.63;4962324;28;102196;-71
2024/03/04 07:49:48;;;;;;;;;21.50;19.50;;;;;-143.90;100.00;74456.97;4966792;28;101879;-71
2024/03/04 07:52:15;;;;;;;;;28.00;24.25;;;;;-143.90;100.00;74434.22;4961006;28;104407;-71
2024/03/04 07:54:43;;;;;;;;;30.75;25.00;;;;;-143.90;100.00;74438.38;4953608;28;101988;-71
2024/03/04 07:57:11;;;;;;;;;42.00;35.75;;;;;-143.90;100.00;74436.28;4961232;28;102919;-71
2024/03/04 07:59:48;;;;;;;;;39.25;35.00;;;;;-143.90;100.00;74438.38;4957146;28;103093;-72
2024/03/04 08:02:16;;;;;;;;;28.75;25.25;;;;;-143.90;100.00;74403.22;4966621;28;104046;-71
2024/03/04 08:04:44;;;;;;;;;26.00;24.50;;;;;-143.90;100.00;74397.03;4961500;28;103422;-71
2024/03/04 08:07:12;;;;;;;;;31.25;26.50;;;;;-143.90;100.00;74386.69;4963826;28;102442;-70
2024/03/04 08:09:39;;;;;;;;;23.75;20.75;;;;;-143.90;100.00;74343.28;4967951;28;102513;-71
2024/03/04 08:12:08;;;;;;;;;24.75;22.50;;;;;-143.90;100.00;74349.47;4966031;27;105150;-72
2024/03/04 08:14:36;;;;;;;;;24.50;21.75;;;;;-143.90;100.00;74316.41;4956827;28;102636;-71
2024/03/04 08:17:03;;;;;;;;;14.75;12.00;;;;;-143.90;100.00;74283.34;4965499;28;101867;-71
2024/03/04 08:19:30;;;;;;;;;15.25;12.00;;;;;-143.90;100.00;74260.59;4968619;28;102408;-71
2024/03/04 08:21:57;;;;;;;;;17.00;13.75;;;;;-143.90;71.23;74244.06;4963400;28;103939;-73
2024/03/04 08:24:24;;;;;;;;;9.25;6.50;;;;;-143.90;68.61;74229.59;4955711;28;102405;-71
2024/03/04 08:26:51;;;;;;;;;11.75;11.75;;;;;-143.90;68.84;74233.72;4967114;27;102484;-71
2024/03/04 08:29:18;;;;;;;;;20.50;14.00;;;;;-143.90;66.33;74233.72;4967494;27;102327;-71
2024/03/04 08:31:47;;;;;;;;;18.25;15.25;;;;;-143.90;66.75;74229.59;4966678;28;104282;-71
2024/03/04 08:34:14;;;;;;;;;16.00;13.25;;;;;-143.90;66.19;74217.19;4965985;28;103009;-72
2024/03/04 08:36:42;;;;;;;;;15.75;13.75;;;;;-143.90;64.95;74217.19;4958225;27;102289;-72
2024/03/04 08:39:10;;;;;;;;;12.25;12.00;;;;;-143.90;64.40;74229.59;4967587;28;102288;-72
2024/03/04 08:41:46;;;;;;;;;13.50;12.00;;;;;-143.90;64.63;74223.41;4965266;28;104125;-71
2024/03/04 08:44:14;;;;;;;;;10.50;10.50;;;;;-143.90;67.92;74215.13;4962739;28;104613;-71
2024/03/04 08:46:41;;;;;;;;;12.50;10.50;;;;;-143.90;66.24;74213.06;4955058;28;102744;-72
2024/03/04 08:49:08;;;;;;;;;24.75;23.25;;;;;-143.90;65.98;74225.47;4965451;28;102125;-72
2024/03/04 08:51:35;;;;;;;;;21.00;19.00;;;;;-143.90;65.58;74233.72;4961342;28;103790;-72
2024/03/04 08:54:02;;;;;;;;;17.50;15.00;;;;;-143.90;65.67;74213.06;4954264;28;102407;-72
2024/03/04 08:56:28;;;;;;;;;14.50;14.00;;;;;-143.90;64.86;74200.66;4952009;28;102032;-72
2024/03/04 08:58:57;;;;;;;;;17.00;16.00;;;;;-143.90;68.02;74200.66;4962565;28;102467;-72
2024/03/04 09:01:25;;;;;;;;;22.75;22.50;;;;;-143.90;65.67;74196.53;4965497;28;103968;-72
2024/03/04 09:03:52;;;;;;;;;16.75;16.00;;;;;-143.90;65.49;74169.66;4968471;28;104345;-72
2024/03/04 09:06:20;;;;;;;;;14.50;13.00;;;;;-143.90;64.96;74130.38;4951377;28;102018;-72
2024/03/04 09:08:47;;;;;;;;;11.75;11.25;;;;;-143.90;64.07;74095.25;4963854;28;102005;-72
2024/03/04 09:11:14;;;;;;;;;19.25;18.00;;;;;-143.90;62.79;74095.25;4962439;28;104078;-72
2024/03/04 09:13:40;;;;;;;;;27.25;21.00;;;;;-143.90;62.83;74082.84;4954947;28;101971;-72
2024/03/04 09:16:08;;;;;;;;;15.75;14.50;;;;;-143.90;61.21;74047.72;4965692;28;102418;-73
2024/03/04 09:18:38;;;;;;;;;18.50;17.00;;;;;-143.90;61.06;74024.97;4957655;28;102260;-72
2024/03/04 09:21:06;;;;;;;;;34.25;28.00;;;;;-143.90;60.37;74039.44;4963320;28;104306;-72
2024/03/04 09:23:33;;;;;;;;;20.75;19.00;;;;;-143.90;58.91;74006.38;4963963;28;102033;-72
2024/03/04 09:26:00;;;;;;;;;16.25;14.00;;;;;-143.90;58.95;73987.78;4962418;28;102021;-71
2024/03/04 09:28:27;;;;;;;;;15.00;14.00;;;;;-143.90;57.27;73977.44;4955405;28;102310;-72
2024/03/04 09:30:53;;;;;;;;;13.25;10.25;;;;;-143.90;56.98;73962.97;4966252;28;104145;-72
2024/03/04 09:33:20;;;;;;;;;9.25;7.75;;;;;-143.90;57.02;73944.38;4965343;28;101965;-71
2024/03/04 09:35:47;;;;;;;;;8.50;7.25;;;;;-143.90;55.36;73923.72;4964481;28;102278;-72
2024/03/04 09:38:13;;;;;;;;;7.50;6.25;;;;;-143.90;56.08;73915.44;4966581;28;101975;-72
2024/03/04 09:40:44;;;;;;;;;9.25;9.00;;;;;-143.90;54.38;73919.56;4954580;28;103960;-72
2024/03/04 09:43:16;;;;;;;;;7.00;7.00;;;;;-143.90;53.53;73903.03;4954245;28;102939;-72
2024/03/04 09:45:44;;;;;;;;;7.33;6.00;;;;;-143.90;53.73;73903.03;4964334;28;102145;-71
2024/03/04 09:48:12;;;;;;;;;7.00;6.00;;;;;-143.90;54.23;73892.69;4964286;28;101928;-71
2024/03/04 09:50:40;;;;;;;;;13.50;10.50;;;;;-143.90;53.77;73898.91;4953962;28;103799;-71
2024/03/04 09:53:09;;;;;;;;;7.00;5.25;;;;;-143.90;54.56;73892.69;4964641;28;102384;-72
2024/03/04 09:55:36;;;;;;;;;9.00;9.00;;;;;-143.90;52.23;73907.16;4963005;28;102049;-71
2024/03/04 09:58:04;;;;;;;;;7.00;6.00;;;;;-143.90;52.24;73896.84;4965635;27;105633;-71
2024/03/04 10:00:35;;;;;;;;;5.00;5.00;;;;;-143.90;52.61;73882.38;4956030;27;103959;-72
2024/03/04 10:03:07;;;;;;;;;5.33;5.00;;;;;-143.90;51.87;73874.09;4962306;28;102095;-71
2024/03/04 10:05:34;;;;;;;;;7.00;6.00;;;;;-143.90;50.24;73925.78;4963764;28;102463;-71
2024/03/04 10:08:02;;;;;;;;;9.00;8.25;;;;;-143.90;52.13;73936.09;4954199;28;102092;-72
2024/03/04 10:10:28;;;;;;;;;7.00;7.00;;;;;-143.90;51.54;73915.44;4952729;28;104164;-72
2024/03/04 10:12:56;;;;;;;;;5.00;4.00;;;;;-143.90;51.58;73894.78;4964245;28;101939;-71
2024/03/04 10:15:27;;;;;;;;;5.00;4.00;;;;;-143.90;51.70;73878.25;4965762;28;101836;-72
2024/03/04 10:17:55;;;;;;;;;4.00;4.00;;;;;-143.90;52.24;73865.84;4965619;28;102058;-72
2024/03/04 10:20:23;;;;;;;;;5.00;5.00;;;;;-143.90;50.95;73896.84;4958301;28;104127;-72
2024/03/04 10:22:50;;;;;;;;;5.67;5.67;;;;;-143.90;49.21;73915.44;4963715;28;102276;-71
2024/03/04 10:25:18;;;;;;;;;8.00;7.00;;;;;-143.90;51.83;73915.44;4963550;28;104714;-71
2024/03/04 10:27:50;;;;;;;;;5.33;4.00;;;;;-143.90;50.26;73886.50;4966669;28;102378;-71
2024/03/04 10:30:19;;;;;;;;;6.67;6.67;;;;;-143.90;51.11;73890.63;4958480;28;104063;-72
2024/03/04 10:32:56;;;;;;;;;6.67;6.67;;;;;-143.90;50.11;73878.25;4962139;28;102066;-72
2024/03/04 10:35:25;;;;;;;;;9.50;8.00;;;;;-143.90;51.05;73903.03;4962838;28;102439;-71
2024/03/04 10:37:56;;;;;;;;;6.00;5.67;;;;;-143.90;50.80;73884.44;4967076;28;102538;-72
2024/03/04 10:40:23;;;;;;;;;5.67;3.33;;;;;-143.90;49.75;73880.31;4946750;28;109055;-72
2024/03/04 10:42:50;;;;;;;;;5.00;4.00;;;;;-143.90;50.76;73878.25;4966834;28;102324;-71
2024/03/04 10:45:17;;;;;;;;;3.00;3.00;;;;;-143.90;49.96;73853.44;4960271;28;103171;-71
2024/03/04 10:47:44;;;;;;;;;2.67;2.67;;;;;-143.90;50.80;73851.38;4964841;28;102508;-71
2024/03/04 10:50:14;;;;;;;;;4.00;4.00;;;;;-143.90;48.96;73851.38;4959591;28;104133;-72